Wales, AK

1:42 AM AKDT on July 30, 2014 (GMT -0800)
Tin City LRRS (PATC) Elev 272 ft | 65.56 °N, 167.92 °W | Change Station

Current weather conditions updated 47 minutes ago

Clear
Clear
52 °F
Feels Like 52 °F
N
1
Wind Variable Wind from SSW

Today is forecast to be Cooler than yesterday. Afternoon showers.

Today
High -- | Low -- °F
--% Chance of Precip.
Yesterday
High -- | Low -- °F
Precip. -- in
5:56 AM 0:36 AM
Waxing Crescent, 10% visible
Pressure 30.28 in
Visibility 10.0 miles
Clouds Clear
Dew Point 44 °F
Humidity 75%
Rainfall 0.00 in
Snow Depth Not available.
UV 0 out of 12
Pollen Not available.
Air Quality Not available.
Flu Activity Not available.
METAR PATC 300855Z AUTO 21001KT 10SM CLR 11/07 A3028 RMK AO2 SLP254 T01110068 401350083 57002

More Conditions Fewer Conditions

Pressure 30.28 in
Visibility 10.0 miles
Clouds Clear
Dew Point 44 °F
Humidity 75%
Rainfall 0.00 in
Snow Depth Not available.
UV 0 out of 12
Pollen Not available.
Air Quality Not available.
Flu Activity Not available.
METAR PATC 300855Z AUTO 21001KT 10SM CLR 11/07 A3028 RMK AO2 SLP254 T01110068 401350083 57002

More Conditions Fewer Conditions

10-Day Weather Forecast

Almanac

Astronomy

Jul. 30, 2014 Rise Set
Actual Time 5:56 AM AKDT 12:36 AM AKDT
Civil Twilight 3:50 AM AKDT 2:46 AM AKDT
Nautical Twilight Sun does not rise Sun does not rise
Astronomical Twilight Sun does not rise Sun does not rise
Moon 11:43 AM AKDT 12:05 AM AKDT
Length of Visible Light 22h 55m
Length of Day
18h 40m
Tomorrow will be 7m 30s shorter.
Waxing Crescent, 10% of the Moon is Illuminated
Today
Waxing Crescent
Aug 3
First Quarter
Aug 10
Full
Aug 17
Last Quarter
Aug 25
New

Today's Extremes

State Highs State Lows

Community

WunderPhotos

Upload Photos

1,739,029 photos uploaded!

WunderBlogs® & News

By Dr. Jeff Masters
Director of Meteorology, Weather Underground
By Kari Strenfel
Meteorologist, Weather Underground
By Christopher C. Burt
Weather Historian, Weather Underground
July 29, 2014
July 29, 2014
July 29, 2014

Nearby

Snow Depth

Station Depth Elevation
Rocky Point 1 in 500 ft
Gobblers Knob 0 in 2030 ft
Coldfoot 0 in 1040 ft
Atigun Pass 0 in 4800 ft
Imnaviat Creek 0 in 3050 ft

Earthquake Activity

City Distance Mag. Time & Date
No recent earthquake activity has been reported nearby.
Minimum magnitude displayed is 2.5.

Coastal Water Temperatures

Place Temperature
No Stations Reporting

Nearby Weather Stations

There are no personal weather stations in this area.